createdAt,value
2023-07-22T00:01:53.343Z,55.91
2023-07-22T00:04:21.118Z,56.07
2023-07-22T00:06:48.668Z,55.81
2023-07-22T00:09:16.166Z,56.31
2023-07-22T00:11:43.936Z,56.51
2023-07-22T00:14:11.471Z,56.40
2023-07-22T00:16:39.005Z,56.41
2023-07-22T00:19:08.311Z,56.69
2023-07-22T00:21:35.867Z,56.77
2023-07-22T00:24:03.438Z,57.21
2023-07-22T00:26:31.199Z,57.65
2023-07-22T00:28:58.675Z,57.92
2023-07-22T00:31:26.310Z,57.49
2023-07-22T00:33:54.194Z,57.04
2023-07-22T00:36:21.689Z,57.42
2023-07-22T00:38:49.246Z,57.08
2023-07-22T00:41:17.048Z,57.25
2023-07-22T00:43:45.438Z,57.40
2023-07-22T00:46:12.949Z,57.83
2023-07-22T00:48:40.874Z,57.43
2023-07-22T00:51:08.393Z,57.69
2023-07-22T00:53:35.919Z,57.79
2023-07-22T00:56:04.062Z,57.37
2023-07-22T00:58:32.121Z,57.39
2023-07-22T01:00:59.679Z,57.42
2023-07-22T01:03:27.697Z,57.88
2023-07-22T01:05:55.914Z,57.34
2023-07-22T01:08:23.457Z,57.86
2023-07-22T01:10:51.819Z,57.97
2023-07-22T01:13:19.377Z,57.61
2023-07-22T01:15:46.994Z,57.72
2023-07-22T01:18:14.745Z,57.91
2023-07-22T01:20:42.627Z,58.03
2023-07-22T01:23:10.569Z,57.86
2023-07-22T01:25:38.497Z,58.32
2023-07-22T01:28:11.608Z,58.32
2023-07-22T01:30:39.469Z,58.00
2023-07-22T01:33:07.173Z,57.78
2023-07-22T01:35:36.345Z,57.89
2023-07-22T01:38:04.459Z,58.07
2023-07-22T01:40:32.342Z,58.66
2023-07-22T01:42:59.902Z,58.05
2023-07-22T01:45:27.621Z,58.15
2023-07-22T01:47:55.231Z,57.77
2023-07-22T01:50:23.597Z,57.96
2023-07-22T01:52:51.470Z,58.14
2023-07-22T01:55:19.744Z,58.16
2023-07-22T01:57:47.307Z,58.31
2023-07-22T02:00:16.328Z,58.00
2023-07-22T02:02:45.276Z,58.02
2023-07-22T02:05:13.394Z,57.97
2023-07-22T02:07:41.017Z,57.94
2023-07-22T02:10:10.715Z,58.67
2023-07-22T02:12:38.297Z,58.79
2023-07-22T02:15:06.485Z,58.50
2023-07-22T02:17:35.126Z,58.88
2023-07-22T02:20:02.804Z,59.04
2023-07-22T02:22:30.784Z,58.84
2023-07-22T02:24:58.535Z,58.80
2023-07-22T02:27:26.007Z,58.93
2023-07-22T02:29:53.828Z,58.85
2023-07-22T02:32:21.414Z,58.72
2023-07-22T02:34:48.920Z,58.57
2023-07-22T02:37:16.689Z,58.73
2023-07-22T02:39:44.122Z,59.15
2023-07-22T02:42:11.643Z,59.18
2023-07-22T02:44:39.601Z,59.22
2023-07-22T02:47:07.230Z,59.05
2023-07-22T02:49:34.704Z,59.11
2023-07-22T02:52:02.526Z,59.28
2023-07-22T02:54:30.051Z,59.50
2023-07-22T02:56:57.524Z,59.38
2023-07-22T02:59:25.566Z,59.24
2023-07-22T03:01:54.087Z,59.29
2023-07-22T03:04:21.703Z,59.54
2023-07-22T03:06:49.512Z,58.95
2023-07-22T03:09:17.007Z,58.86
2023-07-22T03:11:44.495Z,58.99
2023-07-22T03:14:12.343Z,58.92
2023-07-22T03:16:39.837Z,58.90
2023-07-22T03:19:07.431Z,58.96
2023-07-22T03:24:02.407Z,59.11
2023-07-22T03:26:30.027Z,59.11
2023-07-22T03:28:57.832Z,59.12
2023-07-22T03:31:25.396Z,59.31
2023-07-22T03:33:53.617Z,59.72
2023-07-22T03:36:21.403Z,60.00
2023-07-22T03:38:49.221Z,59.61
2023-07-22T03:41:16.711Z,59.54
2023-07-22T03:43:44.722Z,59.58
2023-07-22T03:46:12.225Z,59.14
2023-07-22T03:48:39.750Z,59.41
2023-07-22T03:51:19.368Z,59.11
2023-07-22T03:53:48.948Z,59.00
2023-07-22T03:56:16.813Z,59.16
2023-07-22T03:58:44.302Z,58.81
2023-07-22T04:01:12.720Z,58.69
2023-07-22T04:03:40.689Z,58.91
2023-07-22T04:06:08.397Z,58.85
2023-07-22T04:08:36.191Z,58.83
2023-07-22T04:11:04.365Z,58.89
2023-07-22T04:13:31.955Z,58.82
2023-07-22T04:15:59.501Z,58.81
2023-07-22T04:18:27.268Z,58.35
2023-07-22T04:21:00.577Z,58.25
2023-07-22T04:23:28.645Z,59.22
2023-07-22T04:25:56.171Z,58.56
2023-07-22T04:28:26.166Z,58.99
2023-07-22T04:31:00.144Z,58.64
2023-07-22T04:33:29.062Z,58.69
2023-07-22T04:36:00.845Z,58.83
2023-07-22T04:38:29.228Z,59.29
2023-07-22T04:40:57.006Z,58.78
2023-07-22T04:43:24.493Z,59.04
2023-07-22T04:45:52.015Z,59.46
2023-07-22T04:48:23.268Z,60.84
2023-07-22T04:50:51.113Z,60.06
2023-07-22T04:53:19.282Z,59.46
2023-07-22T04:55:47.169Z,59.10
2023-07-22T04:58:14.693Z,60.18
2023-07-22T05:00:43.857Z,59.89
2023-07-22T05:03:11.889Z,61.10
2023-07-22T05:05:39.533Z,61.59
2023-07-22T05:08:08.602Z,62.06
2023-07-22T05:10:36.651Z,59.94
2023-07-22T05:13:04.200Z,60.38
2023-07-22T05:15:31.700Z,59.54
2023-07-22T05:17:59.539Z,62.04
2023-07-22T05:20:27.533Z,61.53
2023-07-22T05:22:55.202Z,62.30
2023-07-22T05:25:23.031Z,59.97
2023-07-22T05:27:50.695Z,61.28
2023-07-22T05:30:33.064Z,62.18
2023-07-22T05:33:02.670Z,62.55
2023-07-22T05:35:30.397Z,63.75
2023-07-22T05:37:57.969Z,63.17
2023-07-22T05:40:25.919Z,62.58
2023-07-22T05:42:53.452Z,62.03
2023-07-22T05:45:21.057Z,62.85
2023-07-22T05:47:48.953Z,61.30
2023-07-22T05:50:16.537Z,61.43
2023-07-22T05:52:44.366Z,60.53
2023-07-22T05:55:12.133Z,61.71
2023-07-22T05:57:39.594Z,64.00
2023-07-22T06:00:09.934Z,61.59
2023-07-22T06:02:40.107Z,63.71
2023-07-22T06:05:08.246Z,62.93
2023-07-22T06:07:35.941Z,62.74
2023-07-22T06:10:03.564Z,61.46
2023-07-22T06:12:31.586Z,61.51
2023-07-22T06:14:59.209Z,63.86
2023-07-22T06:17:26.919Z,63.39
2023-07-22T06:19:54.831Z,61.27
2023-07-22T06:22:22.370Z,62.36
2023-07-22T06:24:49.998Z,60.17
2023-07-22T06:27:17.889Z,59.62
2023-07-22T06:29:45.352Z,59.97
2023-07-22T06:32:13.105Z,61.10
2023-07-22T06:34:40.926Z,61.58
2023-07-22T06:37:08.489Z,60.37
2023-07-22T06:39:35.992Z,60.34
2023-07-22T06:42:03.872Z,59.20
2023-07-22T06:44:32.747Z,59.33
2023-07-22T06:47:01.132Z,59.44
2023-07-22T06:49:28.900Z,58.69
2023-07-22T06:51:56.415Z,59.42
2023-07-22T06:54:24.015Z,60.92
2023-07-22T06:56:51.841Z,60.53
2023-07-22T06:59:19.282Z,58.00
2023-07-22T07:01:46.837Z,59.25
2023-07-22T07:04:14.828Z,59.62
2023-07-22T07:06:42.464Z,59.73
2023-07-22T07:09:09.998Z,58.40
2023-07-22T07:11:37.852Z,58.06
2023-07-22T07:14:05.426Z,58.36
2023-07-22T07:16:33.488Z,58.07
2023-07-22T07:19:02.291Z,58.84
2023-07-22T07:21:29.832Z,57.53
2023-07-22T07:23:57.422Z,58.35
2023-07-22T07:26:25.579Z,59.63
2023-07-22T07:28:53.883Z,57.29
2023-07-22T07:31:21.472Z,57.67
2023-07-22T07:33:49.281Z,57.00
2023-07-22T07:36:16.764Z,57.06
2023-07-22T07:38:44.294Z,55.38
2023-07-22T07:41:13.810Z,54.53
2023-07-22T07:43:42.076Z,55.46
2023-07-22T07:46:23.771Z,55.87
2023-07-22T07:48:53.985Z,55.44
2023-07-22T07:51:22.561Z,55.46
2023-07-22T07:53:50.837Z,55.34
2023-07-22T07:56:19.644Z,54.13
2023-07-22T07:58:48.549Z,54.14
2023-07-22T08:01:16.701Z,54.70
2023-07-22T08:03:45.569Z,53.53
2023-07-22T08:06:13.656Z,54.12
2023-07-22T08:08:41.444Z,53.61
2023-07-22T08:11:10.874Z,54.47
2023-07-22T08:13:38.964Z,53.08
2023-07-22T08:16:08.875Z,51.71
2023-07-22T08:18:37.364Z,52.57
2023-07-22T08:21:07.534Z,52.24
2023-07-22T08:23:35.671Z,52.67
2023-07-22T08:26:06.526Z,51.71
2023-07-22T08:28:34.392Z,51.26
2023-07-22T08:31:02.372Z,49.99
2023-07-22T08:36:03.691Z,48.54
2023-07-22T08:38:32.261Z,49.35
2023-07-22T08:40:59.758Z,49.82
2023-07-22T08:43:29.047Z,48.99
2023-07-22T08:46:00.842Z,48.76
2023-07-22T08:48:31.257Z,48.52
2023-07-22T08:51:04.832Z,48.75
2023-07-22T08:53:34.508Z,46.92
2023-07-22T08:56:02.650Z,49.27
2023-07-22T08:58:31.320Z,48.71
2023-07-22T09:00:59.529Z,45.37
2023-07-22T09:03:27.481Z,46.56
2023-07-22T09:05:55.743Z,47.26
2023-07-22T09:08:23.245Z,46.72
2023-07-22T09:10:51.155Z,46.28
2023-07-22T09:13:20.652Z,45.07
2023-07-22T09:15:49.339Z,44.44
2023-07-22T09:18:17.275Z,45.20
2023-07-22T09:20:44.793Z,44.62
2023-07-22T09:23:14.580Z,44.43
2023-07-22T09:25:43.841Z,46.02
2023-07-22T09:28:11.555Z,46.50
2023-07-22T09:30:40.704Z,47.52
2023-07-22T09:33:21.584Z,46.58
2023-07-22T09:35:50.412Z,44.07
2023-07-22T09:38:36.162Z,42.51
2023-07-22T09:41:03.734Z,42.27
2023-07-22T09:43:32.118Z,43.43
2023-07-22T09:46:25.370Z,42.75
2023-07-22T09:48:56.666Z,42.62
2023-07-22T09:51:24.243Z,42.55
2023-07-22T09:54:01.654Z,42.35
2023-07-22T09:56:29.688Z,42.04
2023-07-22T09:58:59.937Z,40.13
2023-07-22T10:01:27.675Z,41.04
2023-07-22T10:03:57.272Z,41.26
2023-07-22T10:06:31.130Z,40.88
2023-07-22T10:09:03.430Z,39.48
2023-07-22T10:11:31.279Z,39.20
2023-07-22T10:13:59.836Z,38.09
2023-07-22T10:16:28.114Z,38.86
2023-07-22T10:18:56.523Z,38.56
2023-07-22T10:21:25.391Z,36.52
2023-07-22T10:23:53.383Z,37.60
2023-07-22T10:26:29.081Z,37.23
2023-07-22T10:29:00.886Z,36.85
2023-07-22T10:31:32.279Z,37.01
2023-07-22T10:34:00.195Z,37.83
2023-07-22T10:36:30.543Z,35.89
2023-07-22T10:39:00.737Z,35.10
2023-07-22T10:41:30.358Z,34.64
2023-07-22T10:44:03.496Z,34.95
2023-07-22T10:46:36.092Z,35.33
2023-07-22T10:49:12.256Z,36.08
2023-07-22T10:51:40.266Z,35.72
2023-07-22T10:54:15.259Z,35.58
2023-07-22T10:56:45.869Z,36.51
2023-07-22T10:59:13.825Z,36.40
2023-07-22T11:01:43.306Z,35.60
2023-07-22T11:04:51.213Z,33.56
2023-07-22T11:07:33.666Z,34.70
2023-07-22T11:10:19.060Z,33.78
2023-07-22T11:12:47.726Z,33.61
2023-07-22T11:15:19.295Z,35.12
2023-07-22T11:17:46.955Z,35.33
2023-07-22T11:20:14.806Z,33.69
2023-07-22T11:22:42.622Z,33.87
2023-07-22T11:25:10.908Z,33.51
2023-07-22T11:27:38.758Z,34.38
2023-07-22T11:30:06.824Z,33.17
2023-07-22T11:32:35.291Z,33.43
2023-07-22T11:35:03.229Z,35.10
2023-07-22T11:37:31.214Z,33.69
2023-07-22T11:40:02.752Z,34.55
2023-07-22T11:42:31.805Z,32.86
2023-07-22T11:44:59.485Z,33.13
2023-07-22T11:47:31.539Z,34.35
2023-07-22T11:49:59.470Z,35.81
2023-07-22T11:52:27.006Z,34.40
2023-07-22T11:54:54.512Z,33.47
2023-07-22T11:57:23.819Z,33.38
2023-07-22T11:59:55.713Z,34.44
2023-07-22T12:02:25.287Z,33.95
2023-07-22T12:05:04.131Z,32.31
2023-07-22T12:07:35.490Z,32.75
2023-07-22T12:10:06.704Z,32.73
2023-07-22T12:12:34.520Z,32.17
2023-07-22T12:15:14.679Z,31.39
2023-07-22T12:18:00.377Z,30.48
2023-07-22T12:20:34.235Z,31.40
2023-07-22T12:23:02.291Z,33.00
2023-07-22T12:25:30.655Z,32.66
2023-07-22T12:27:58.136Z,33.51
2023-07-22T12:30:28.258Z,33.36
2023-07-22T12:32:55.861Z,32.51
2023-07-22T12:35:23.351Z,32.11
2023-07-22T12:37:51.190Z,31.61
2023-07-22T12:40:18.839Z,31.43
2023-07-22T12:42:46.768Z,31.33
2023-07-22T12:45:14.538Z,32.09
2023-07-22T12:47:42.070Z,30.99
2023-07-22T12:50:09.906Z,32.69
2023-07-22T12:52:38.654Z,32.74
2023-07-22T12:55:06.426Z,32.61
2023-07-22T12:57:34.042Z,32.76
2023-07-22T13:00:02.106Z,33.35
2023-07-22T13:02:29.816Z,33.27
2023-07-22T13:04:57.381Z,32.93
2023-07-22T13:07:25.164Z,32.49
2023-07-22T13:09:54.658Z,32.57
2023-07-22T13:12:25.331Z,33.47
2023-07-22T13:14:52.934Z,33.66
2023-07-22T13:17:20.509Z,32.47
2023-07-22T13:19:48.319Z,31.95
2023-07-22T13:22:15.817Z,32.50
2023-07-22T13:24:43.521Z,32.25
2023-07-22T13:27:11.373Z,32.32
2023-07-22T13:29:38.844Z,31.63
2023-07-22T13:32:07.220Z,31.35
2023-07-22T13:34:34.973Z,31.51
2023-07-22T13:37:04.028Z,32.04
2023-07-22T13:39:31.730Z,30.97
2023-07-22T13:41:59.474Z,31.43
2023-07-22T13:44:27.036Z,30.76
2023-07-22T13:46:54.672Z,30.75
2023-07-22T13:49:22.458Z,31.46
2023-07-22T13:51:49.989Z,30.26
2023-07-22T13:54:17.479Z,30.45
2023-07-22T13:56:46.858Z,30.31
2023-07-22T13:59:15.141Z,31.08
2023-07-22T14:01:42.725Z,31.73
2023-07-22T14:04:10.612Z,31.42
2023-07-22T14:06:38.667Z,31.37
2023-07-22T14:09:06.226Z,31.47
2023-07-22T14:11:33.969Z,30.77
2023-07-22T14:14:01.473Z,30.87
2023-07-22T14:16:29.054Z,30.38
2023-07-22T14:18:56.920Z,30.60
2023-07-22T14:21:24.508Z,29.77
2023-07-22T14:23:52.353Z,29.49
2023-07-22T14:26:21.648Z,30.28
2023-07-22T14:28:49.207Z,29.24
2023-07-22T14:31:16.771Z,30.33
2023-07-22T14:33:44.625Z,30.75
2023-07-22T14:36:13.138Z,30.30
2023-07-22T14:38:40.680Z,30.13
2023-07-22T14:41:08.533Z,30.46
2023-07-22T14:43:36.281Z,30.45
2023-07-22T14:46:03.803Z,30.09
2023-07-22T14:48:31.622Z,30.38
2023-07-22T14:50:59.199Z,30.91
2023-07-22T14:53:26.696Z,30.41
2023-07-22T14:55:54.596Z,29.77
2023-07-22T14:58:22.111Z,30.26
2023-07-22T15:00:49.635Z,29.05
2023-07-22T15:03:17.685Z,28.69
2023-07-22T15:05:45.260Z,28.64
2023-07-22T15:08:12.782Z,29.21
2023-07-22T15:10:40.540Z,29.86
2023-07-22T15:13:08.184Z,28.88
2023-07-22T15:15:35.691Z,28.98
2023-07-22T15:18:03.583Z,29.70
2023-07-22T15:20:31.130Z,29.63
2023-07-22T15:22:59.022Z,29.77
2023-07-22T15:25:26.898Z,29.33
2023-07-22T15:27:54.434Z,28.56
2023-07-22T15:30:22.081Z,30.48
2023-07-22T15:32:52.070Z,28.88
2023-07-22T15:35:20.574Z,29.68
2023-07-22T15:37:50.030Z,29.69
2023-07-22T15:40:17.614Z,29.33
2023-07-22T15:42:45.238Z,28.39
2023-07-22T15:45:13.062Z,29.77
2023-07-22T15:47:40.610Z,29.51
2023-07-22T15:50:09.051Z,28.97
2023-07-22T15:52:37.983Z,28.93
2023-07-22T15:55:06.355Z,28.37
2023-07-22T15:57:33.851Z,29.40
2023-07-22T16:00:02.785Z,29.68
2023-07-22T16:02:32.393Z,28.84
2023-07-22T16:05:00.526Z,29.25
2023-07-22T16:07:28.076Z,29.47
2023-07-22T16:09:55.562Z,30.09
2023-07-22T16:12:23.391Z,29.25
2023-07-22T16:14:51.082Z,29.54
2023-07-22T16:17:18.551Z,29.93
2023-07-22T16:19:46.692Z,30.14
2023-07-22T16:22:14.272Z,30.01
2023-07-22T16:24:42.217Z,29.68
2023-07-22T16:27:10.070Z,29.98
2023-07-22T16:29:37.570Z,29.90
2023-07-22T16:32:05.812Z,29.91
2023-07-22T16:34:33.648Z,30.76
2023-07-22T16:37:01.112Z,29.97
2023-07-22T16:39:29.289Z,31.37
2023-07-22T16:41:57.428Z,30.60
2023-07-22T16:44:24.963Z,30.74
2023-07-22T16:46:52.469Z,30.73
2023-07-22T16:49:20.326Z,31.06
2023-07-22T16:51:48.190Z,30.95
2023-07-22T16:54:16.037Z,31.58
2023-07-22T16:56:43.818Z,32.81
2023-07-22T16:59:11.393Z,33.60
2023-07-22T17:01:39.646Z,33.47
2023-07-22T17:04:08.988Z,32.91
2023-07-22T17:06:36.511Z,32.32
2023-07-22T17:09:04.130Z,32.63
2023-07-22T17:11:32.325Z,32.05
2023-07-22T17:14:00.055Z,32.15
2023-07-22T17:16:27.799Z,32.00
2023-07-22T17:18:55.710Z,32.03
2023-07-22T17:21:23.303Z,32.07
2023-07-22T17:23:50.897Z,32.15
2023-07-22T17:26:18.719Z,31.86
2023-07-22T17:28:46.267Z,32.12
2023-07-22T17:31:13.925Z,32.47
2023-07-22T17:33:42.228Z,32.19
2023-07-22T17:36:09.774Z,33.02
2023-07-22T17:38:37.330Z,33.02
2023-07-22T17:41:05.143Z,33.02
2023-07-22T17:43:32.724Z,33.27
2023-07-22T17:46:00.297Z,33.29
2023-07-22T17:48:28.207Z,33.37
2023-07-22T17:50:55.781Z,33.50
2023-07-22T17:53:23.328Z,33.59
2023-07-22T17:55:51.186Z,33.72
2023-07-22T17:58:19.012Z,34.42
2023-07-22T18:00:46.585Z,34.80
2023-07-22T18:03:14.543Z,35.04
2023-07-22T18:05:49.148Z,35.41
2023-07-22T18:08:16.979Z,35.58
2023-07-22T18:10:44.459Z,35.80
2023-07-22T18:13:11.994Z,36.03
2023-07-22T18:15:39.843Z,35.68
2023-07-22T18:18:08.788Z,35.89
2023-07-22T18:20:36.314Z,36.31
2023-07-22T18:23:04.061Z,36.65
2023-07-22T18:25:31.628Z,36.92
2023-07-22T18:27:59.230Z,36.85
2023-07-22T18:30:27.039Z,37.29
2023-07-22T18:32:54.633Z,36.99
2023-07-22T18:35:22.188Z,36.72
2023-07-22T18:37:50.038Z,35.98
2023-07-22T18:40:17.543Z,36.00
2023-07-22T18:42:45.182Z,35.58
2023-07-22T18:45:13.059Z,35.50
2023-07-22T18:47:40.598Z,35.41
2023-07-22T18:50:08.826Z,36.12
2023-07-22T18:52:36.601Z,36.63
2023-07-22T18:55:04.372Z,37.48
2023-07-22T18:57:31.951Z,37.60
2023-07-22T18:59:59.738Z,37.21
2023-07-22T19:02:27.254Z,37.34
2023-07-22T19:04:56.201Z,37.17
2023-07-22T19:07:24.062Z,37.43
2023-07-22T19:09:51.589Z,37.70
2023-07-22T19:12:19.233Z,38.05
2023-07-22T19:14:47.114Z,38.30
2023-07-22T19:17:14.658Z,38.22
2023-07-22T19:19:42.899Z,38.39
2023-07-22T19:22:10.799Z,38.67
2023-07-22T19:24:38.357Z,38.04
2023-07-22T19:27:06.129Z,37.96
2023-07-22T19:29:34.024Z,37.71
2023-07-22T19:32:01.644Z,37.76
2023-07-22T19:34:29.248Z,37.93
2023-07-22T19:36:57.108Z,37.77
2023-07-22T19:39:24.701Z,38.15
2023-07-22T19:41:52.242Z,38.18
2023-07-22T19:44:20.122Z,38.70
2023-07-22T19:46:47.647Z,39.28
2023-07-22T19:49:15.323Z,39.11
2023-07-22T19:51:43.141Z,39.20
2023-07-22T19:54:10.752Z,39.66
2023-07-22T19:56:38.438Z,39.64
2023-07-22T19:59:06.226Z,39.93
2023-07-22T20:01:33.953Z,40.32
2023-07-22T20:04:01.881Z,40.96
2023-07-22T20:06:29.428Z,41.37
2023-07-22T20:08:56.974Z,41.80
2023-07-22T20:11:24.908Z,42.18
2023-07-22T20:13:52.515Z,42.68
2023-07-22T20:16:20.069Z,43.03
2023-07-22T20:18:47.985Z,43.11
2023-07-22T20:21:16.139Z,43.55
2023-07-22T20:23:45.912Z,43.60
2023-07-22T20:26:13.802Z,43.63
2023-07-22T20:28:49.865Z,43.89
2023-07-22T20:31:17.658Z,43.53
2023-07-22T20:33:45.270Z,43.82
2023-07-22T20:36:14.524Z,44.36
2023-07-22T20:38:43.917Z,44.42
2023-07-22T20:41:12.447Z,43.65
2023-07-22T20:43:40.094Z,43.08
2023-07-22T20:46:08.046Z,42.79
2023-07-22T20:48:35.653Z,42.72
2023-07-22T20:51:04.168Z,42.86
2023-07-22T20:53:32.449Z,43.14
2023-07-22T20:56:01.058Z,43.04
2023-07-22T20:58:29.824Z,43.62
2023-07-22T21:01:01.014Z,43.64
2023-07-22T21:03:28.756Z,43.91
2023-07-22T21:06:00.064Z,44.52
2023-07-22T21:08:29.471Z,43.90
2023-07-22T21:10:57.200Z,44.34
2023-07-22T21:13:24.753Z,44.25
2023-07-22T21:15:52.627Z,44.06
2023-07-22T21:18:21.783Z,44.28
2023-07-22T21:20:49.359Z,44.42
2023-07-22T21:23:17.101Z,44.44
2023-07-22T21:25:44.616Z,44.44
2023-07-22T21:28:13.667Z,44.43
2023-07-22T21:30:41.910Z,44.49
2023-07-22T21:33:09.655Z,44.45
2023-07-22T21:35:37.293Z,44.74
2023-07-22T21:38:05.133Z,44.91
2023-07-22T21:40:33.740Z,44.85
2023-07-22T21:43:02.002Z,44.57
2023-07-22T21:45:29.828Z,44.33
2023-07-22T21:47:57.459Z,44.14
2023-07-22T21:50:25.076Z,44.30
2023-07-22T21:52:53.451Z,44.10
2023-07-22T21:55:21.676Z,44.10
2023-07-22T21:57:49.225Z,44.33
2023-07-22T22:00:17.358Z,44.89
2023-07-22T22:02:45.262Z,45.07
2023-07-22T22:05:12.832Z,45.24
2023-07-22T22:07:40.332Z,45.11
2023-07-22T22:10:09.934Z,45.39
2023-07-22T22:12:37.984Z,44.86
2023-07-22T22:15:06.560Z,44.84
2023-07-22T22:17:40.241Z,44.71
2023-07-22T22:20:14.292Z,44.75
2023-07-22T22:22:42.093Z,44.92
2023-07-22T22:25:09.924Z,45.15
2023-07-22T22:27:37.471Z,45.40
2023-07-22T22:30:06.025Z,45.71
2023-07-22T22:32:33.714Z,45.84
2023-07-22T22:35:01.265Z,45.90
2023-07-22T22:37:29.130Z,45.91
2023-07-22T22:39:56.856Z,45.57
2023-07-22T22:42:25.743Z,45.67
2023-07-22T22:44:53.528Z,45.81
2023-07-22T22:47:21.052Z,46.25
2023-07-22T22:49:48.606Z,46.08
2023-07-22T22:52:16.432Z,46.31
2023-07-22T22:54:45.165Z,46.17
2023-07-22T22:57:12.677Z,46.30
2023-07-22T22:59:40.483Z,46.20
2023-07-22T23:02:08.105Z,46.49
2023-07-22T23:04:35.654Z,46.25
2023-07-22T23:07:05.579Z,46.98
2023-07-22T23:09:33.158Z,47.34
2023-07-22T23:12:00.714Z,47.56
2023-07-22T23:14:28.497Z,47.54
2023-07-22T23:16:56.033Z,47.68
2023-07-22T23:19:23.538Z,48.01
2023-07-22T23:21:51.323Z,47.47
2023-07-22T23:24:18.914Z,47.53
2023-07-22T23:26:46.450Z,47.82
2023-07-22T23:29:14.212Z,47.89
2023-07-22T23:31:42.428Z,48.18
2023-07-22T23:34:10.262Z,48.05
2023-07-22T23:36:38.533Z,47.83
2023-07-22T23:39:07.636Z,47.61
2023-07-22T23:41:35.326Z,47.71
2023-07-22T23:44:04.536Z,47.69
2023-07-22T23:46:32.879Z,47.71
2023-07-22T23:49:00.614Z,47.40
2023-07-22T23:51:29.137Z,47.88
2023-07-22T23:53:57.194Z,47.63
2023-07-22T23:56:24.963Z,47.84
2023-07-22T23:58:52.679Z,47.58
